createdAt,value
2019-01-26T00:01:50.175Z,79.50
2019-01-26T00:04:22.198Z,79.99
2019-01-26T00:06:59.602Z,79.46
2019-01-26T00:09:30.028Z,79.74
2019-01-26T00:12:01.633Z,79.61
2019-01-26T00:14:41.988Z,79.84
2019-01-26T00:17:13.999Z,79.88
2019-01-26T00:19:58.034Z,79.92
2019-01-26T00:22:31.389Z,79.89
2019-01-26T00:25:14.501Z,79.85
2019-01-26T00:27:45.745Z,79.57
2019-01-26T00:30:17.996Z,80.08
2019-01-26T00:32:58.908Z,80.33
2019-01-26T00:35:36.044Z,80.45
2019-01-26T00:38:10.834Z,80.18
2019-01-26T00:40:45.543Z,80.35
2019-01-26T00:43:27.509Z,80.27
2019-01-26T00:46:07.641Z,80.37
2019-01-26T00:48:42.168Z,80.38
2019-01-26T00:51:17.335Z,80.11
2019-01-26T00:53:59.142Z,79.93
2019-01-26T00:56:36.618Z,79.75
2019-01-26T00:59:23.051Z,79.70
2019-01-26T01:02:00.253Z,79.97
2019-01-26T01:04:42.588Z,79.59
2019-01-26T01:07:28.482Z,79.39
2019-01-26T01:10:13.660Z,79.29
2019-01-26T01:12:50.980Z,79.67
2019-01-26T01:15:28.393Z,79.52
2019-01-26T01:18:05.639Z,79.43
2019-01-26T01:20:43.733Z,79.46
2019-01-26T01:23:19.735Z,79.58
2019-01-26T01:25:59.535Z,79.54
2019-01-26T01:28:33.030Z,79.17
2019-01-26T01:31:05.207Z,79.29
2019-01-26T01:33:44.173Z,79.18
2019-01-26T01:36:22.364Z,79.22
2019-01-26T01:39:07.397Z,79.38
2019-01-26T01:41:50.527Z,79.03
2019-01-26T01:44:29.845Z,78.95
2019-01-26T01:47:07.429Z,79.18
2019-01-26T01:49:41.578Z,79.32
2019-01-26T01:52:16.059Z,79.35
2019-01-26T01:54:57.047Z,79.10
2019-01-26T01:57:40.879Z,79.09
2019-01-26T02:00:31.356Z,79.21
2019-01-26T02:03:07.740Z,79.06
2019-01-26T02:05:45.398Z,79.35
2019-01-26T02:08:36.991Z,79.49
2019-01-26T02:10:59.736Z,79.64
2019-01-26T02:13:40.771Z,79.65
2019-01-26T02:16:15.925Z,79.42
2019-01-26T02:18:47.920Z,79.61
2019-01-26T02:21:24.314Z,79.37
2019-01-26T02:24:01.689Z,79.52
2019-01-26T02:26:42.377Z,79.57
2019-01-26T02:29:27.893Z,79.48
2019-01-26T02:32:08.851Z,79.58
2019-01-26T02:34:40.608Z,79.65
2019-01-26T02:37:16.985Z,79.71
2019-01-26T02:39:53.914Z,79.80
2019-01-26T02:42:25.869Z,79.73
2019-01-26T02:44:58.635Z,79.87
2019-01-26T02:47:31.892Z,79.71
2019-01-26T02:50:14.250Z,79.85
2019-01-26T02:52:46.670Z,79.76
2019-01-26T02:55:18.539Z,79.88
2019-01-26T02:58:02.170Z,79.77
2019-01-26T03:00:38.260Z,79.45
2019-01-26T03:03:09.967Z,79.51
2019-01-26T03:05:41.852Z,79.60
2019-01-26T03:08:15.140Z,79.58
2019-01-26T03:10:47.449Z,79.44
2019-01-26T03:13:20.762Z,79.43
2019-01-26T03:15:52.882Z,79.26
2019-01-26T03:18:26.186Z,79.06
2019-01-26T03:20:57.837Z,79.16
2019-01-26T03:23:29.609Z,79.09
2019-01-26T03:26:01.241Z,79.21
2019-01-26T03:28:37.102Z,78.99
2019-01-26T03:31:11.890Z,79.18
2019-01-26T03:33:43.774Z,79.30
2019-01-26T03:36:16.951Z,79.36
2019-01-26T03:38:50.119Z,79.02
2019-01-26T03:41:21.899Z,79.04
2019-01-26T03:43:55.164Z,79.03
2019-01-26T03:46:26.821Z,79.09
2019-01-26T03:48:58.673Z,79.28
2019-01-26T03:51:30.587Z,79.45
2019-01-26T03:54:02.291Z,79.36
2019-01-26T03:56:33.998Z,79.42
2019-01-26T03:59:08.645Z,79.46
2019-01-26T04:01:41.759Z,79.55
2019-01-26T04:04:14.188Z,79.63
2019-01-26T04:06:45.889Z,79.70
2019-01-26T04:09:17.489Z,79.94
2019-01-26T04:11:52.048Z,80.12
2019-01-26T04:14:23.890Z,80.18
2019-01-26T04:16:55.626Z,80.19
2019-01-26T04:19:27.259Z,80.14
2019-01-26T04:21:58.953Z,80.26
2019-01-26T04:24:33.021Z,80.42
2019-01-26T04:27:04.765Z,80.49
2019-01-26T04:29:36.469Z,80.55
2019-01-26T04:32:08.304Z,80.68
2019-01-26T04:34:40.012Z,80.65
2019-01-26T04:37:14.673Z,80.98
2019-01-26T04:39:47.953Z,80.92
2019-01-26T04:42:19.610Z,80.90
2019-01-26T04:44:52.687Z,80.86
2019-01-26T04:47:31.113Z,80.73
2019-01-26T04:50:21.803Z,80.78
2019-01-26T04:52:55.994Z,80.89
2019-01-26T04:55:27.697Z,80.96
2019-01-26T04:57:59.268Z,80.99
2019-01-26T05:00:30.944Z,81.20
2019-01-26T05:03:02.651Z,81.10
2019-01-26T05:05:50.353Z,81.21
2019-01-26T05:08:37.630Z,81.27
2019-01-26T05:11:09.309Z,81.30
2019-01-26T05:13:42.247Z,81.36
2019-01-26T05:16:13.815Z,81.48
2019-01-26T05:18:45.235Z,81.63
2019-01-26T05:21:16.689Z,81.67
2019-01-26T05:23:57.500Z,81.76
2019-01-26T05:26:28.979Z,81.86
2019-01-26T05:29:00.562Z,82.11
2019-01-26T05:31:32.220Z,82.23
2019-01-26T05:34:04.857Z,82.28
2019-01-26T05:36:36.463Z,82.43
2019-01-26T05:39:08.995Z,82.47
2019-01-26T05:41:55.920Z,82.66
2019-01-26T05:44:28.881Z,82.40
2019-01-26T05:47:04.574Z,82.52
2019-01-26T05:49:36.204Z,82.56
2019-01-26T05:52:07.961Z,82.54
2019-01-26T05:54:41.565Z,82.81
2019-01-26T05:57:13.293Z,82.90
2019-01-26T05:59:45.101Z,82.99
2019-01-26T06:02:16.939Z,83.28
2019-01-26T06:04:48.723Z,83.29
2019-01-26T06:07:21.957Z,83.46
2019-01-26T06:09:53.694Z,83.69
2019-01-26T06:12:25.465Z,83.32
2019-01-26T06:15:11.899Z,83.24
2019-01-26T06:17:55.023Z,83.51
2019-01-26T06:20:23.083Z,83.67
2019-01-26T06:22:54.733Z,83.80
2019-01-26T06:25:32.218Z,83.88
2019-01-26T06:28:03.961Z,83.81
2019-01-26T06:30:41.437Z,84.19
2019-01-26T06:33:13.052Z,84.22
2019-01-26T06:35:44.518Z,84.42
2019-01-26T06:38:15.929Z,84.35
2019-01-26T06:40:47.783Z,84.25
2019-01-26T06:43:19.345Z,84.37
2019-01-26T06:45:50.976Z,84.34
2019-01-26T06:48:22.505Z,84.47
2019-01-26T06:50:54.057Z,84.59
2019-01-26T06:53:25.545Z,84.60
2019-01-26T06:55:57.167Z,84.53
2019-01-26T06:58:28.615Z,84.55
2019-01-26T07:01:00.166Z,84.42
2019-01-26T07:03:31.414Z,84.32
2019-01-26T07:06:04.402Z,84.43
2019-01-26T07:08:35.634Z,84.62
2019-01-26T07:11:07.364Z,84.47
2019-01-26T07:13:38.599Z,84.46
2019-01-26T07:16:10.041Z,84.26
2019-01-26T07:18:41.346Z,84.16
2019-01-26T07:21:12.753Z,84.01
2019-01-26T07:23:44.143Z,84.05
2019-01-26T07:26:15.645Z,84.14
2019-01-26T07:28:47.105Z,84.05
2019-01-26T07:31:18.553Z,83.91
2019-01-26T07:33:49.838Z,83.71
2019-01-26T07:37:02.214Z,83.76
2019-01-26T07:39:33.521Z,83.75
2019-01-26T07:42:04.946Z,84.00
2019-01-26T07:44:39.751Z,84.13
2019-01-26T07:47:11.153Z,84.30
2019-01-26T07:49:42.566Z,84.26
2019-01-26T07:52:14.000Z,84.30
2019-01-26T07:54:45.269Z,84.10
2019-01-26T07:57:16.655Z,83.85
2019-01-26T07:59:47.950Z,83.69
2019-01-26T08:02:19.584Z,83.92
2019-01-26T08:04:50.898Z,84.03
2019-01-26T08:07:22.260Z,83.80
2019-01-26T08:09:55.103Z,83.83
2019-01-26T08:12:26.602Z,83.74
2019-01-26T08:14:57.973Z,83.91
2019-01-26T08:17:29.493Z,83.78
2019-01-26T08:20:00.728Z,83.42
2019-01-26T08:22:32.269Z,83.65
2019-01-26T08:25:03.659Z,83.65
2019-01-26T08:27:35.094Z,83.43
2019-01-26T08:30:16.337Z,83.76
2019-01-26T08:32:47.905Z,83.47
2019-01-26T08:35:19.845Z,82.99
2019-01-26T08:37:52.980Z,83.24
2019-01-26T08:40:24.267Z,83.19
2019-01-26T08:42:55.546Z,83.37
2019-01-26T08:45:26.985Z,83.05
2019-01-26T08:51:53.187Z,82.60
2019-01-26T08:54:48.259Z,82.61
2019-01-26T08:57:19.864Z,82.32
2019-01-26T08:59:51.970Z,82.08
2019-01-26T09:02:25.863Z,82.50
2019-01-26T09:04:57.753Z,82.08
2019-01-26T09:07:28.971Z,81.19
2019-01-26T09:10:03.894Z,81.80
2019-01-26T09:12:35.084Z,81.77
2019-01-26T09:15:10.298Z,81.56
2019-01-26T09:17:41.673Z,81.21
2019-01-26T09:20:15.668Z,81.19
2019-01-26T09:22:46.966Z,81.08
2019-01-26T09:25:18.399Z,80.81
2019-01-26T09:27:52.224Z,80.68
2019-01-26T09:30:23.642Z,80.85
2019-01-26T09:32:55.092Z,80.59
2019-01-26T09:35:26.526Z,80.48
2019-01-26T09:37:57.901Z,80.50
2019-01-26T09:40:29.321Z,80.52
2019-01-26T09:43:00.828Z,80.67
2019-01-26T09:45:32.323Z,79.86
2019-01-26T09:48:03.858Z,79.90
2019-01-26T09:50:35.171Z,79.99
2019-01-26T09:53:06.828Z,80.28
2019-01-26T09:55:38.528Z,79.52
2019-01-26T09:58:09.956Z,79.46
2019-01-26T10:00:41.450Z,79.63
2019-01-26T10:03:14.374Z,79.60
2019-01-26T10:05:45.722Z,79.48
2019-01-26T10:08:16.964Z,78.96
2019-01-26T10:10:48.363Z,79.04
2019-01-26T10:13:19.633Z,79.08
2019-01-26T10:15:56.705Z,78.53
2019-01-26T10:18:29.546Z,78.29
2019-01-26T10:21:00.904Z,78.18
2019-01-26T10:23:32.357Z,77.66
2019-01-26T10:26:03.693Z,77.48
2019-01-26T10:28:35.117Z,77.06
2019-01-26T10:31:06.537Z,77.05
2019-01-26T10:33:38.033Z,76.74
2019-01-26T10:36:12.305Z,76.72
2019-01-26T10:38:45.327Z,76.27
2019-01-26T10:41:20.904Z,76.42
2019-01-26T10:43:56.247Z,75.53
2019-01-26T10:46:27.569Z,76.08
2019-01-26T10:49:00.827Z,76.52
2019-01-26T10:51:31.955Z,76.84
2019-01-26T10:54:06.575Z,75.16
2019-01-26T10:56:38.042Z,76.21
2019-01-26T10:59:09.266Z,76.85
2019-01-26T11:01:40.638Z,77.35
2019-01-26T11:04:12.022Z,77.49
2019-01-26T11:06:43.385Z,76.67
2019-01-26T11:09:14.670Z,76.34
2019-01-26T11:11:47.636Z,75.35
2019-01-26T11:14:18.839Z,76.43
2019-01-26T11:16:50.259Z,76.16
2019-01-26T11:19:21.549Z,76.04
2019-01-26T11:21:52.824Z,75.67
2019-01-26T11:24:24.113Z,74.68
2019-01-26T11:26:55.542Z,76.16
2019-01-26T11:29:26.777Z,75.65
2019-01-26T11:31:58.115Z,75.58
2019-01-26T11:34:29.408Z,76.38
2019-01-26T11:37:00.749Z,76.54
2019-01-26T11:39:32.253Z,75.94
2019-01-26T11:42:03.874Z,75.56
2019-01-26T11:44:35.364Z,75.98
2019-01-26T11:47:08.403Z,76.56
2019-01-26T11:49:42.492Z,76.14
2019-01-26T11:52:15.943Z,76.49
2019-01-26T11:54:49.003Z,76.64
2019-01-26T11:57:20.503Z,76.96
2019-01-26T11:59:54.393Z,77.22
2019-01-26T12:02:29.930Z,78.18
2019-01-26T12:05:00.254Z,77.42
2019-01-26T12:07:32.056Z,77.73
2019-01-26T12:10:03.483Z,78.05
2019-01-26T12:12:34.834Z,78.28
2019-01-26T12:15:10.637Z,78.25
2019-01-26T12:17:42.214Z,78.45
2019-01-26T12:20:31.202Z,78.48
2019-01-26T12:23:02.823Z,78.12
2019-01-26T12:25:39.928Z,77.96
2019-01-26T12:28:11.375Z,77.98
2019-01-26T12:30:42.791Z,78.10
2019-01-26T12:33:14.243Z,78.04
2019-01-26T12:35:45.657Z,77.91
2019-01-26T12:38:17.232Z,78.10
2019-01-26T12:40:48.816Z,78.38
2019-01-26T12:43:20.330Z,78.34
2019-01-26T12:45:51.891Z,78.34
2019-01-26T12:48:24.482Z,78.41
2019-01-26T12:50:55.859Z,78.35
2019-01-26T12:53:27.373Z,78.58
2019-01-26T12:55:58.928Z,78.63
2019-01-26T12:58:30.533Z,78.53
2019-01-26T13:01:02.104Z,78.55
2019-01-26T13:03:36.452Z,78.96
2019-01-26T13:06:08.082Z,79.21
2019-01-26T13:08:39.724Z,79.21
2019-01-26T13:11:21.255Z,79.37
2019-01-26T13:13:52.894Z,79.55
2019-01-26T13:16:24.360Z,79.74
2019-01-26T13:18:55.910Z,79.80
2019-01-26T13:21:27.364Z,79.93
2019-01-26T13:23:58.932Z,80.06
2019-01-26T13:26:30.859Z,80.24
2019-01-26T13:29:02.258Z,80.15
2019-01-26T13:31:33.682Z,80.23
2019-01-26T13:34:05.251Z,80.43
2019-01-26T13:36:37.077Z,80.52
2019-01-26T13:39:09.448Z,80.61
2019-01-26T13:41:40.955Z,80.71
2019-01-26T13:44:12.332Z,80.71
2019-01-26T13:46:43.662Z,80.83
2019-01-26T13:49:15.123Z,80.82
2019-01-26T13:51:46.394Z,80.85
2019-01-26T13:54:17.781Z,81.01
2019-01-26T13:56:49.242Z,81.13
2019-01-26T13:59:20.719Z,81.32
2019-01-26T14:01:52.040Z,81.57
2019-01-26T14:04:24.230Z,81.89
2019-01-26T14:06:56.650Z,82.18
2019-01-26T14:09:29.063Z,82.28
2019-01-26T14:12:00.402Z,82.51
2019-01-26T14:14:31.709Z,82.59
2019-01-26T14:17:03.142Z,82.87
2019-01-26T14:19:34.598Z,82.85
2019-01-26T14:22:06.163Z,82.88
2019-01-26T14:24:37.682Z,83.20
2019-01-26T14:27:09.122Z,83.33
2019-01-26T14:29:40.528Z,83.33
2019-01-26T14:32:11.868Z,83.35
2019-01-26T14:34:43.278Z,83.47
2019-01-26T14:37:14.623Z,83.50
2019-01-26T14:39:46.876Z,83.46
2019-01-26T14:42:18.331Z,83.35
2019-01-26T14:44:49.802Z,83.50
2019-01-26T14:47:21.143Z,83.83
2019-01-26T14:49:58.451Z,83.62
2019-01-26T14:52:25.778Z,83.63
2019-01-26T14:54:59.759Z,83.70
2019-01-26T14:57:31.222Z,83.72
2019-01-26T15:00:05.230Z,83.58
2019-01-26T15:02:36.613Z,83.64
2019-01-26T15:05:13.724Z,83.79
2019-01-26T15:07:45.156Z,83.77
2019-01-26T15:10:16.739Z,83.97
2019-01-26T15:12:48.222Z,84.04
2019-01-26T15:15:21.644Z,84.18
2019-01-26T15:17:53.044Z,84.27
2019-01-26T15:20:37.344Z,84.41
2019-01-26T15:23:09.479Z,84.51
2019-01-26T15:25:40.765Z,84.50
2019-01-26T15:28:12.279Z,84.44
2019-01-26T15:30:46.290Z,84.44
2019-01-26T15:33:17.785Z,84.53
2019-01-26T15:35:49.364Z,84.54
2019-01-26T15:38:22.375Z,84.45
2019-01-26T15:40:58.594Z,84.33
2019-01-26T15:43:30.053Z,84.38
2019-01-26T15:46:14.976Z,84.58
2019-01-26T15:48:46.464Z,84.58
2019-01-26T15:51:18.000Z,84.80
2019-01-26T15:53:50.517Z,84.77
2019-01-26T15:56:21.940Z,84.86
2019-01-26T15:58:53.333Z,84.96
2019-01-26T16:01:24.761Z,85.10
2019-01-26T16:03:56.393Z,85.11
2019-01-26T16:06:28.141Z,85.20
2019-01-26T16:08:59.527Z,85.14
2019-01-26T16:11:30.894Z,85.20
2019-01-26T16:14:02.478Z,85.16
2019-01-26T16:16:34.138Z,85.16
2019-01-26T16:19:05.799Z,85.20
2019-01-26T16:21:37.206Z,85.34
2019-01-26T16:24:16.857Z,85.92
2019-01-26T16:26:48.240Z,86.13
2019-01-26T16:29:19.706Z,86.35
2019-01-26T16:31:51.308Z,86.28
2019-01-26T16:34:23.672Z,86.26
2019-01-26T16:36:55.423Z,86.25
2019-01-26T16:39:26.893Z,86.46
2019-01-26T16:42:06.484Z,86.53
2019-01-26T16:44:42.349Z,86.56
2019-01-26T16:47:15.672Z,86.72
2019-01-26T16:49:48.302Z,86.73
2019-01-26T16:52:21.418Z,86.66
2019-01-26T16:54:53.071Z,86.57
2019-01-26T16:57:24.537Z,86.69
2019-01-26T16:59:56.106Z,86.77
2019-01-26T17:02:38.909Z,86.80
2019-01-26T17:05:11.910Z,86.73
2019-01-26T17:07:57.402Z,86.72
2019-01-26T17:10:34.112Z,86.74
2019-01-26T17:13:02.247Z,86.91
2019-01-26T17:15:35.475Z,87.13
2019-01-26T17:18:13.484Z,87.22
2019-01-26T17:20:43.410Z,87.31
2019-01-26T17:23:16.645Z,87.29
2019-01-26T17:25:48.203Z,87.26
2019-01-26T17:28:20.997Z,87.42
2019-01-26T17:30:52.419Z,87.46
2019-01-26T17:33:25.859Z,87.51
2019-01-26T17:35:58.904Z,87.67
2019-01-26T17:38:30.296Z,87.69
2019-01-26T17:41:01.701Z,87.80
2019-01-26T17:43:33.236Z,87.91
2019-01-26T17:46:04.826Z,87.91
2019-01-26T17:48:37.785Z,87.96
2019-01-26T17:51:09.205Z,88.05
2019-01-26T17:53:42.306Z,88.10
2019-01-26T17:56:14.010Z,88.17
2019-01-26T17:58:47.566Z,88.29
2019-01-26T18:01:18.788Z,88.30
2019-01-26T18:03:53.743Z,88.33
2019-01-26T18:06:25.559Z,88.20
2019-01-26T18:08:58.013Z,88.21
2019-01-26T18:11:29.620Z,88.07
2019-01-26T18:14:03.389Z,87.98
2019-01-26T18:16:35.089Z,87.95
2019-01-26T18:19:07.906Z,87.82
2019-01-26T18:21:41.009Z,87.68
2019-01-26T18:24:12.491Z,87.61
2019-01-26T18:26:45.387Z,87.42
2019-01-26T18:29:20.587Z,87.21
2019-01-26T18:31:52.080Z,87.15
2019-01-26T18:34:24.137Z,87.14
2019-01-26T18:36:55.508Z,87.05
2019-01-26T18:39:29.769Z,86.93
2019-01-26T18:42:01.137Z,86.80
2019-01-26T18:44:32.599Z,86.64
2019-01-26T18:47:05.856Z,86.65
2019-01-26T18:49:37.594Z,86.64
2019-01-26T18:52:10.072Z,86.54
2019-01-26T18:54:41.593Z,86.44
2019-01-26T18:57:13.163Z,86.36
2019-01-26T18:59:44.586Z,86.43
2019-01-26T19:02:16.035Z,86.41
2019-01-26T19:04:49.138Z,86.37
2019-01-26T19:07:20.622Z,86.40
2019-01-26T19:09:51.989Z,86.33
2019-01-26T19:12:23.523Z,86.38
2019-01-26T19:14:54.950Z,86.40
2019-01-26T19:17:26.484Z,86.49
2019-01-26T19:19:57.774Z,86.48
2019-01-26T19:22:29.199Z,86.48
2019-01-26T19:25:00.779Z,86.44
2019-01-26T19:27:32.218Z,86.53
2019-01-26T19:30:04.230Z,86.63
2019-01-26T19:32:35.922Z,86.78
2019-01-26T19:35:09.982Z,86.77
2019-01-26T19:37:41.421Z,86.74
2019-01-26T19:40:20.374Z,86.76
2019-01-26T19:42:52.073Z,86.75
2019-01-26T19:45:25.657Z,86.76
2019-01-26T19:47:58.852Z,86.94
2019-01-26T19:50:32.086Z,87.07
2019-01-26T19:53:06.025Z,87.19
2019-01-26T19:55:42.092Z,87.48
2019-01-26T19:58:14.040Z,87.61
2019-01-26T20:00:46.864Z,87.72
2019-01-26T20:03:19.450Z,87.84
2019-01-26T20:05:52.089Z,87.82
2019-01-26T20:08:24.700Z,87.71
2019-01-26T20:10:57.231Z,87.64
2019-01-26T20:13:28.729Z,87.57
2019-01-26T20:16:03.194Z,87.53
2019-01-26T20:18:34.794Z,87.39
2019-01-26T20:21:06.550Z,87.33
2019-01-26T20:23:38.196Z,87.23
2019-01-26T20:26:12.395Z,87.10
2019-01-26T20:28:44.168Z,87.06
2019-01-26T20:31:15.920Z,86.92
2019-01-26T20:33:48.771Z,86.83
2019-01-26T20:36:21.925Z,86.81
2019-01-26T20:38:53.443Z,86.69
2019-01-26T20:41:25.017Z,86.69
2019-01-26T20:43:56.612Z,86.64
2019-01-26T20:46:28.341Z,86.57
2019-01-26T20:49:03.363Z,86.53
2019-01-26T20:51:35.024Z,86.56
2019-01-26T20:54:06.632Z,86.54
2019-01-26T20:56:38.487Z,86.57
2019-01-26T20:59:10.048Z,86.62
2019-01-26T21:01:41.728Z,86.52
2019-01-26T21:04:13.208Z,86.52
2019-01-26T21:06:44.751Z,86.53
2019-01-26T21:09:16.360Z,86.44
2019-01-26T21:11:47.972Z,86.39
2019-01-26T21:14:19.573Z,86.39
2019-01-26T21:16:51.035Z,86.28
2019-01-26T21:19:22.661Z,86.32
2019-01-26T21:21:54.363Z,86.32
2019-01-26T21:24:25.803Z,86.28
2019-01-26T21:26:57.387Z,86.09
2019-01-26T21:29:28.995Z,86.15
2019-01-26T21:32:00.537Z,86.05
2019-01-26T21:34:38.883Z,86.03
2019-01-26T21:37:11.042Z,85.84
2019-01-26T21:39:42.662Z,85.81
2019-01-26T21:42:14.133Z,85.66
2019-01-26T21:44:45.621Z,85.61
2019-01-26T21:47:17.147Z,85.74
2019-01-26T21:49:48.475Z,85.77
2019-01-26T21:52:19.946Z,85.76
2019-01-26T21:54:51.273Z,85.91
2019-01-26T21:57:22.746Z,85.92
2019-01-26T21:59:54.247Z,85.91
2019-01-26T22:02:25.648Z,85.75
2019-01-26T22:04:56.987Z,85.69
2019-01-26T22:07:28.293Z,85.70
2019-01-26T22:09:59.982Z,85.54
2019-01-26T22:12:31.470Z,85.46
2019-01-26T22:15:04.838Z,85.40
2019-01-26T22:17:36.275Z,85.31
2019-01-26T22:20:17.486Z,85.20
2019-01-26T22:22:49.663Z,85.25
2019-01-26T22:25:21.572Z,85.04
2019-01-26T22:27:54.153Z,85.10
2019-01-26T22:30:29.200Z,85.11
2019-01-26T22:33:00.562Z,85.14
2019-01-26T22:35:31.968Z,85.28
2019-01-26T22:38:03.299Z,85.24
2019-01-26T22:40:36.408Z,85.29
2019-01-26T22:43:07.875Z,85.30
2019-01-26T22:45:39.431Z,85.09
2019-01-26T22:48:11.654Z,85.09
2019-01-26T22:50:43.205Z,85.01
2019-01-26T22:53:14.781Z,84.94
2019-01-26T22:55:46.295Z,84.87
2019-01-26T22:58:17.947Z,84.90
2019-01-26T23:01:00.341Z,84.72
2019-01-26T23:03:43.431Z,84.70
2019-01-26T23:06:48.867Z,84.70
2019-01-26T23:09:30.372Z,84.75
2019-01-26T23:12:17.586Z,84.65
2019-01-26T23:15:42.230Z,84.82
2019-01-26T23:18:38.774Z,84.84
2019-01-26T23:21:23.201Z,84.90
2019-01-26T23:24:23.804Z,84.87
2019-01-26T23:27:32.782Z,84.93
2019-01-26T23:30:19.844Z,84.82
2019-01-26T23:32:51.105Z,84.73
2019-01-26T23:35:22.906Z,84.62
2019-01-26T23:37:54.426Z,84.39
2019-01-26T23:40:25.931Z,84.39
2019-01-26T23:42:57.375Z,84.38
2019-01-26T23:45:28.835Z,84.35
2019-01-26T23:48:01.215Z,84.33
2019-01-26T23:50:32.706Z,84.43
2019-01-26T23:53:04.208Z,84.44
2019-01-26T23:55:35.770Z,84.59
2019-01-26T23:58:07.431Z,84.62
